Time;durP1;ratioP1;P1;durP2;ratioP2;P2;SDS_P1;SDS_P2;PMS_P1;PMS_P2;Temp;Humidity;BMP_temperature;BMP_pressure;BME280_temperature;BME280_humidity;BME280_pressure;Samples;Min_cycle;Max_cycle;Signal;HPM_P1;HPM_P2
2021/01/24 07:07:23;;;;;;;12.00;4.80;;;;;;;;;;4976759;28;20607;-84
2021/01/24 15:04:47;;;;;;;5.10;1.83;;;;;;;;;;4996345;28;20372;-84
2021/01/24 15:07:59;;;;;;;6.00;1.95;;;;;;;;;;4950859;29;20463;-82
2021/01/24 15:14:15;;;;;;;6.97;2.40;;;;;;;;;;4953619;29;20042;-82
2021/01/24 16:00:27;;;;;;;3.58;1.90;;;;;;;;;;4959840;28;20056;-85
2021/01/24 16:02:53;;;;;;;3.70;1.83;;;;;;;;;;4991227;28;20134;-83
2021/01/24 16:05:21;;;;;;;4.28;2.10;;;;;;;;;;4989946;28;20047;-84
2021/01/24 17:06:25;;;;;;;4.25;1.63;;;;;;;;;;4963183;28;20150;-80
2021/01/24 17:08:52;;;;;;;3.33;1.70;;;;;;;;;;4998667;28;20031;-81
2021/01/24 17:11:18;;;;;;;4.95;2.30;;;;;;;;;;4993209;28;20022;-81
2021/01/24 17:13:46;;;;;;;4.97;2.40;;;;;;;;;;4976060;28;20037;-81
2021/01/24 17:16:17;;;;;;;5.00;1.90;;;;;;;;;;4975942;28;20037;-80
2021/01/24 17:18:43;;;;;;;2.85;1.17;;;;;;;;;;4979893;28;20033;-78
2021/01/24 17:21:09;;;;;;;2.78;0.95;;;;;;;;;;4997245;28;20023;-82
2021/01/24 17:23:35;;;;;;;6.25;1.63;;;;;;;;;;4996785;28;20057;-79
2021/01/24 17:26:04;;;;;;;4.72;1.35;;;;;;;;;;4980189;28;20046;-82
2021/01/24 17:28:30;;;;;;;3.67;1.30;;;;;;;;;;4979769;28;20054;-82
2021/01/24 17:30:56;;;;;;;2.30;0.90;;;;;;;;;;4979872;28;20050;-82
2021/01/24 17:33:24;;;;;;;2.85;1.15;;;;;;;;;;4996885;28;20489;-83
2021/01/24 17:35:50;;;;;;;2.15;0.80;;;;;;;;;;4997082;28;20499;-79
2021/01/24 17:38:16;;;;;;;1.42;0.80;;;;;;;;;;4979499;28;20553;-83
2021/01/24 17:40:46;;;;;;;2.28;1.05;;;;;;;;;;4993107;28;20037;-83
2021/01/24 17:43:14;;;;;;;2.15;0.85;;;;;;;;;;4980070;28;20029;-84
2021/01/24 17:45:45;;;;;;;2.47;0.95;;;;;;;;;;4994854;28;20062;-79
2021/01/24 17:48:22;;;;;;;2.35;1.00;;;;;;;;;;4994606;28;20054;-81
2021/01/24 17:50:51;;;;;;;3.05;1.38;;;;;;;;;;4997365;28;20033;-82
2021/01/24 17:53:19;;;;;;;2.70;1.52;;;;;;;;;;4996964;28;20465;-82
2021/01/24 17:55:47;;;;;;;2.42;1.02;;;;;;;;;;4979549;28;20126;-81
2021/01/24 17:58:14;;;;;;;3.05;1.33;;;;;;;;;;4979883;28;20150;-81
2021/01/24 18:00:41;;;;;;;3.03;0.95;;;;;;;;;;4996611;28;20018;-83
2021/01/24 18:03:08;;;;;;;2.47;0.73;;;;;;;;;;4961697;28;20026;-83
2021/01/24 18:05:35;;;;;;;2.67;0.90;;;;;;;;;;4974407;28;20077;-82
2021/01/24 18:08:01;;;;;;;1.75;0.70;;;;;;;;;;4975119;28;20045;-83
2021/01/24 18:10:31;;;;;;;2.05;1.00;;;;;;;;;;4978440;28;20038;-90
2021/01/24 18:13:23;;;;;;;3.35;1.17;;;;;;;;;;4978658;28;20035;-80
2021/01/24 18:15:51;;;;;;;2.03;0.90;;;;;;;;;;4977125;28;20103;-78
2021/01/24 18:18:19;;;;;;;2.55;0.73;;;;;;;;;;4975562;28;20023;-79
2021/01/24 18:20:45;;;;;;;5.47;1.38;;;;;;;;;;4975583;28;20031;-77
2021/01/24 18:23:11;;;;;;;2.22;1.63;;;;;;;;;;4975470;28;20438;-78
2021/01/24 18:25:37;;;;;;;4.95;2.47;;;;;;;;;;4975713;28;20039;-77
2021/01/24 18:28:04;;;;;;;3.78;1.90;;;;;;;;;;4977161;28;20023;-78
2021/01/24 18:30:30;;;;;;;3.15;1.58;;;;;;;;;;4975869;28;20031;-78
2021/01/24 18:32:57;;;;;;;4.40;1.67;;;;;;;;;;4975155;28;20117;-78
2021/01/24 18:35:23;;;;;;;4.68;1.65;;;;;;;;;;4975195;28;20468;-79
2021/01/24 18:37:51;;;;;;;7.95;2.40;;;;;;;;;;4959268;28;20023;-79
2021/01/24 18:40:29;;;;;;;6.25;1.77;;;;;;;;;;4975127;28;20027;-80
2021/01/24 18:42:56;;;;;;;5.53;1.88;;;;;;;;;;4976457;28;20042;-78
2021/01/24 18:45:23;;;;;;;5.93;2.42;;;;;;;;;;4976591;28;20046;-78
2021/01/24 18:48:01;;;;;;;9.38;3.08;;;;;;;;;;4976242;28;20030;-80
2021/01/24 18:51:07;;;;;;;7.78;2.65;;;;;;;;;;4976438;28;20042;-80
2021/01/24 18:53:34;;;;;;;8.02;2.67;;;;;;;;;;4974630;28;20137;-76
2021/01/24 18:56:01;;;;;;;5.25;2.40;;;;;;;;;;4974402;28;20089;-78
2021/01/24 18:58:28;;;;;;;9.23;2.67;;;;;;;;;;4974876;28;20049;-76
2021/01/24 19:01:00;;;;;;;4.22;1.65;;;;;;;;;;4974672;28;20062;-78
2021/01/24 19:03:29;;;;;;;4.57;1.88;;;;;;;;;;4974462;28;20093;-77
2021/01/24 19:05:57;;;;;;;2.72;1.17;;;;;;;;;;4981249;28;20054;-77
2021/01/24 19:08:24;;;;;;;3.25;1.08;;;;;;;;;;4995648;28;20026;-77
2021/01/24 19:10:54;;;;;;;2.38;0.82;;;;;;;;;;4977959;28;20037;-77
2021/01/24 19:13:23;;;;;;;4.72;1.30;;;;;;;;;;4978225;28;20085;-77
2021/01/24 19:16:17;;;;;;;3.17;1.10;;;;;;;;;;4978052;28;20084;-79
2021/01/24 19:19:05;;;;;;;4.32;1.50;;;;;;;;;;4994425;28;20030;-78
2021/01/24 19:22:05;;;;;;;6.25;1.63;;;;;;;;;;4977334;28;20035;-80
2021/01/24 19:24:51;;;;;;;3.53;1.45;;;;;;;;;;4977439;28;20457;-78
2021/01/24 19:28:06;;;;;;;5.28;1.75;;;;;;;;;;4954003;29;20062;-79
2021/01/24 19:31:23;;;;;;;8.45;2.10;;;;;;;;;;4934645;29;20031;-79
2021/01/24 19:40:41;;;;;;;4.35;1.38;;;;;;;;;;4934277;29;20087;-79
2021/01/24 20:50:22;;;;;;;3.65;1.00;;;;;;;;;;4967832;28;20057;-79
2021/01/24 23:32:48;;;;;;;2.20;1.02;;;;;;;;;;4972662;28;20078;-79
